Time;durP1;ratioP1;P1;durP2;ratioP2;P2;SDS_P1;SDS_P2;PMS_P1;PMS_P2;Temp;Humidity;BMP_temperature;BMP_pressure;BME280_temperature;BME280_humidity;BME280_pressure;Samples;Min_cycle;Max_cycle;Signal;HPM_P1;HPM_P2
2023/04/06 00:02:57;;;;;;;;;;;;;;;18.65;34.49;95844.13;10489911;28;3177;-62
2023/04/06 00:07:58;;;;;;;;;;;;;;;18.64;34.46;95841.75;10474169;28;2333;-62
2023/04/06 00:12:58;;;;;;;;;;;;;;;18.61;34.44;95831.78;10490160;28;2704;-62
2023/04/06 00:17:58;;;;;;;;;;;;;;;18.60;34.33;95827.56;10477425;28;2389;-62
2023/04/06 00:22:59;;;;;;;;;;;;;;;18.58;34.31;95827.84;10474728;28;2277;-62
2023/04/06 00:27:59;;;;;;;;;;;;;;;18.57;34.30;95826.25;10478371;28;2689;-62
2023/04/06 00:33:00;;;;;;;;;;;;;;;18.55;34.18;95828.34;10476126;28;2704;-62
2023/04/06 00:38:00;;;;;;;;;;;;;;;18.53;34.20;95819.94;10476621;28;2275;-61
2023/04/06 00:43:01;;;;;;;;;;;;;;;18.53;34.13;95829.66;10474092;28;2274;-61
2023/04/06 00:48:03;;;;;;;;;;;;;;;18.51;34.14;95826.50;10463104;28;2280;-62
2023/04/06 00:53:03;;;;;;;;;;;;;;;18.48;34.08;95822.56;10454483;28;2721;-61
2023/04/06 00:58:04;;;;;;;;;;;;;;;18.47;34.11;95820.19;10457536;28;2259;-62
2023/04/06 01:03:06;;;;;;;;;;;;;;;18.46;33.96;95824.66;10479590;28;2670;-63
2023/04/06 01:08:07;;;;;;;;;;;;;;;18.43;33.93;95824.34;10486380;28;2724;-62
2023/04/06 01:13:08;;;;;;;;;;;;;;;18.43;34.00;95824.34;10481975;28;2709;-63
2023/04/06 01:18:10;;;;;;;;;;;;;;;18.40;33.89;95815.13;10478455;28;3118;-62
2023/04/06 01:23:11;;;;;;;;;;;;;;;18.40;33.89;95819.63;10487920;28;3171;-62
2023/04/06 01:28:11;;;;;;;;;;;;;;;18.39;33.75;95818.03;10487871;28;3169;-63
2023/04/06 01:33:12;;;;;;;;;;;;;;;18.38;33.70;95813.84;10481449;28;2744;-63
2023/04/06 01:38:13;;;;;;;;;;;;;;;18.36;33.70;95813.31;10487696;28;2708;-61
2023/04/06 01:43:15;;;;;;;;;;;;;;;18.33;33.71;95808.56;10477463;28;3092;-62
2023/04/06 01:48:16;;;;;;;;;;;;;;;18.33;33.64;95800.69;10484698;28;3114;-63
2023/04/06 01:53:16;;;;;;;;;;;;;;;18.32;33.57;95804.38;10487421;28;2669;-62
2023/04/06 01:58:17;;;;;;;;;;;;;;;18.29;33.49;95803.06;10493636;28;2831;-63
2023/04/06 02:03:17;;;;;;;;;;;;;;;18.29;33.51;95802.25;10490013;28;3185;-63
2023/04/06 02:08:17;;;;;;;;;;;;;;;18.27;33.46;95799.09;10488354;28;2677;-63
2023/04/06 02:13:18;;;;;;;;;;;;;;;18.26;33.52;95798.31;10482942;28;2740;-62
2023/04/06 02:18:30;;;;;;;;;;;;;;;18.25;33.56;95801.19;10476965;28;2727;-61
2023/04/06 02:23:31;;;;;;;;;;;;;;;18.22;33.47;95792.00;10476168;28;3095;-62
2023/04/06 02:28:31;;;;;;;;;;;;;;;18.20;33.46;95796.72;10483088;28;2334;-62
2023/04/06 02:33:32;;;;;;;;;;;;;;;18.22;33.45;95799.06;10481851;28;3094;-62
2023/04/06 02:38:33;;;;;;;;;;;;;;;18.19;33.45;95791.72;10474673;28;2330;-61
2023/04/06 02:43:34;;;;;;;;;;;;;;;18.18;33.31;95790.94;10481519;28;2440;-62
2023/04/06 02:48:36;;;;;;;;;;;;;;;18.18;33.34;95784.88;10488302;28;3126;-63
2023/04/06 02:53:37;;;;;;;;;;;;;;;18.15;33.29;95785.41;10479542;28;3425;-62
2023/04/06 02:58:37;;;;;;;;;;;;;;;18.15;33.30;95793.28;10483162;28;2310;-63
2023/04/06 03:03:38;;;;;;;;;;;;;;;18.13;33.39;95783.06;10461703;28;2288;-62
2023/04/06 03:08:38;;;;;;;;;;;;;;;18.12;33.29;95793.78;10473936;28;2825;-62
2023/04/06 03:13:39;;;;;;;;;;;;;;;18.12;33.22;95793.78;10477831;28;2448;-62
2023/04/06 03:18:39;;;;;;;;;;;;;;;18.09;33.36;95791.69;10478195;28;2255;-63
2023/04/06 03:23:41;;;;;;;;;;;;;;;18.08;33.29;95790.09;10479485;28;2673;-63
2023/04/06 03:28:41;;;;;;;;;;;;;;;18.06;33.21;95786.94;10492935;28;2836;-63
2023/04/06 03:33:41;;;;;;;;;;;;;;;18.06;33.16;95786.94;10482738;28;3130;-63
2023/04/06 03:38:41;;;;;;;;;;;;;;;18.06;33.17;95792.97;10469703;28;3243;-63
2023/04/06 03:43:42;;;;;;;;;;;;;;;18.03;33.08;95792.72;10470536;28;3118;-63
2023/04/06 03:48:45;;;;;;;;;;;;;;;18.02;32.95;95785.88;10478951;28;2653;-63
2023/04/06 03:53:46;;;;;;;;;;;;;;;18.01;32.93;95798.19;10472987;28;3189;-63
2023/04/06 03:58:50;;;;;;;;;;;;;;;18.00;33.06;95816.81;10474131;28;2290;-63
2023/04/06 04:03:52;;;;;;;;;;;;;;;17.99;33.00;95812.63;10471133;28;2286;-61
2023/04/06 04:08:52;;;;;;;;;;;;;;;18.01;32.99;95807.91;10473184;28;3149;-62
2023/04/06 04:13:53;;;;;;;;;;;;;;;18.05;32.97;95822.91;10474766;28;3135;-62
2023/04/06 04:18:54;;;;;;;;;;;;;;;18.10;32.93;95820.28;10477580;28;2269;-63
2023/04/06 04:23:55;;;;;;;;;;;;;;;18.17;32.96;95814.81;10480086;28;3178;-63
2023/04/06 04:28:56;;;;;;;;;;;;;;;18.27;32.87;95815.63;10478834;28;3197;-64
2023/04/06 04:33:57;;;;;;;;;;;;;;;18.36;32.65;95821.19;10482356;28;2318;-63
2023/04/06 04:39:00;;;;;;;;;;;;;;;18.45;32.52;95823.06;10474101;28;2711;-64
2023/04/06 04:44:01;;;;;;;;;;;;;;;18.53;32.41;95819.16;10481243;28;2255;-64
2023/04/06 04:49:02;;;;;;;;;;;;;;;18.60;32.34;95827.56;10479471;28;3165;-63
2023/04/06 04:54:03;;;;;;;;;;;;;;;18.66;32.36;95823.91;10483482;28;2271;-64
2023/04/06 04:59:05;;;;;;;;;;;;;;;18.72;32.32;95822.88;10490652;28;2314;-64
2023/04/06 05:04:05;;;;;;;;;;;;;;;18.80;32.13;95816.31;10472489;28;2859;-64
2023/04/06 05:09:05;;;;;;;;;;;;;;;18.84;32.03;95825.25;10482254;28;3169;-64
2023/04/06 05:14:06;;;;;;;;;;;;;;;18.88;32.06;95821.84;10482901;28;2326;-63
2023/04/06 05:19:07;;;;;;;;;;;;;;;18.91;31.91;95826.59;10483930;28;3099;-60
2023/04/06 05:24:07;;;;;;;;;;;;;;;18.94;32.01;95826.06;10483782;28;2733;-58
2023/04/06 05:29:07;;;;;;;;;;;;;;;18.95;32.17;95830.28;10463885;28;3150;-63
2023/04/06 05:34:09;;;;;;;;;;;;;;;18.96;32.38;95823.97;10479387;28;3102;-64
2023/04/06 05:39:09;;;;;;;;;;;;;;;18.99;32.16;95835.78;10482049;28;2322;-64
2023/04/06 05:44:10;;;;;;;;;;;;;;;19.01;32.37;95826.59;10482676;28;3178;-63
2023/04/06 05:49:10;;;;;;;;;;;;;;;19.06;32.30;95831.09;10464933;28;3737;-63
2023/04/06 05:54:10;;;;;;;;;;;;;;;19.07;32.34;95830.81;10474131;28;2350;-63
2023/04/06 05:59:12;;;;;;;;;;;;;;;19.11;32.35;95834.50;10464493;28;2672;-63
2023/04/06 06:04:14;;;;;;;;;;;;;;;19.16;32.33;95833.72;10477669;28;3169;-63
2023/04/06 06:09:15;;;;;;;;;;;;;;;19.19;32.44;95833.97;10472392;28;3170;-62
2023/04/06 06:14:16;;;;;;;;;;;;;;;19.24;32.37;95833.97;10482488;28;2704;-63
2023/04/06 06:19:16;;;;;;;;;;;;;;;19.28;32.26;95835.03;10477193;28;2302;-64
2023/04/06 06:24:17;;;;;;;;;;;;;;;19.31;32.33;95831.88;10482901;28;2333;-63
2023/04/06 06:29:17;;;;;;;;;;;;;;;19.32;32.32;95833.47;10475805;28;2298;-62
2023/04/06 06:34:17;;;;;;;;;;;;;;;19.34;32.15;95836.63;10482560;28;2279;-64
2023/04/06 06:39:17;;;;;;;;;;;;;;;19.39;32.06;95844.50;10477899;28;3218;-62
2023/04/06 06:44:18;;;;;;;;;;;;;;;19.38;32.27;95835.06;10449248;28;2928;-62
2023/04/06 06:49:18;;;;;;;;;;;;;;;19.40;32.45;95840.84;10477890;28;2322;-62
2023/04/06 06:54:19;;;;;;;;;;;;;;;19.39;32.34;95847.13;10472701;28;2911;-62
2023/04/06 06:59:20;;;;;;;;;;;;;;;19.43;32.13;95847.41;10474733;28;2283;-62
2023/04/06 07:04:20;;;;;;;;;;;;;;;19.44;32.33;95847.16;10476361;28;3348;-62
2023/04/06 07:09:21;;;;;;;;;;;;;;;19.45;32.31;95851.34;10479133;28;2851;-62
2023/04/06 07:14:22;;;;;;;;;;;;;;;19.44;32.31;95856.88;10475088;28;2328;-62
2023/04/06 07:19:22;;;;;;;;;;;;;;;19.43;32.41;95855.31;10477474;28;2980;-62
2023/04/06 07:24:22;;;;;;;;;;;;;;;19.41;32.49;95858.19;10473150;28;3265;-61
2023/04/06 07:29:23;;;;;;;;;;;;;;;19.38;32.48;95856.09;10474813;28;3240;-61
2023/04/06 07:34:25;;;;;;;;;;;;;;;19.33;32.56;95858.69;10472964;28;2322;-61
2023/04/06 07:39:26;;;;;;;;;;;;;;;19.29;32.39;95852.38;10491258;28;3374;-61
2023/04/06 07:44:26;;;;;;;;;;;;;;;19.28;32.76;95855.25;10463543;28;2316;-60
2023/04/06 07:49:28;;;;;;;;;;;;;;;19.26;33.32;95860.78;10469414;28;3257;-69
2023/04/06 07:54:28;;;;;;;;;;;;;;;19.26;36.06;95850.28;10473203;28;3312;-64
2023/04/06 07:59:29;;;;;;;;;;;;;;;19.35;37.00;95850.59;10475661;28;3369;-64
2023/04/06 08:04:31;;;;;;;;;;;;;;;19.38;39.54;95856.09;10480081;28;2879;-63
2023/04/06 08:09:32;;;;;;;;;;;;;;;19.38;39.71;95845.56;10477615;28;2995;-63
2023/04/06 08:14:32;;;;;;;;;;;;;;;19.37;41.14;95854.50;10485815;28;2357;-64
2023/04/06 08:19:43;;;;;;;;;;;;;;;19.35;41.82;95855.84;10485166;28;3328;-63
2023/04/06 08:24:44;;;;;;;;;;;;;;;19.27;40.50;95851.03;10482599;28;2828;-63
2023/04/06 08:29:44;;;;;;;;;;;;;;;19.25;42.89;95855.78;10484503;28;2848;-63
2023/04/06 08:34:45;;;;;;;;;;;;;;;19.20;42.71;95856.59;10480840;28;2887;-63
2023/04/06 08:39:45;;;;;;;;;;;;;;;19.18;42.05;95858.69;10483651;28;3432;-64
2023/04/06 08:44:47;;;;;;;;;;;;;;;19.11;41.33;95858.13;10482541;28;3454;-67
2023/04/06 08:49:47;;;;;;;;;;;;;;;19.12;43.39;95854.47;10469270;28;2805;-63
2023/04/06 08:54:47;;;;;;;;;;;;;;;19.05;42.40;95848.69;10467038;28;3299;-63
2023/04/06 08:59:49;;;;;;;;;;;;;;;19.05;42.98;95850.50;10474836;28;2891;-63
2023/04/06 09:04:50;;;;;;;;;;;;;;;18.98;42.04;95850.00;10498076;28;2872;-63
2023/04/06 09:09:51;;;;;;;;;;;;;;;18.97;43.45;95857.06;10481724;28;3316;-63
2023/04/06 09:14:52;;;;;;;;;;;;;;;18.92;42.56;95854.44;10475000;28;2856;-63
2023/04/06 09:19:54;;;;;;;;;;;;;;;18.92;42.74;95854.44;10476323;28;2805;-63
2023/04/06 09:24:55;;;;;;;;;;;;;;;18.88;42.14;95853.38;10479581;28;3410;-63
2023/04/06 09:30:06;;;;;;;;;;;;;;;18.85;42.25;95848.66;10479050;28;2923;-64
2023/04/06 09:35:07;;;;;;;;;;;;;;;18.83;42.04;95847.31;10481046;28;2985;-63
2023/04/06 09:40:10;;;;;;;;;;;;;;;18.79;41.91;95847.06;10477626;28;2953;-63
2023/04/06 09:45:11;;;;;;;;;;;;;;;18.81;42.29;95839.72;10496092;28;2887;-64
2023/04/06 09:50:21;;;;;;;;;;;;;;;18.78;42.26;95836.81;10479078;28;2302;-64
2023/04/06 09:55:41;;;;;;;;;;;;;;;18.74;41.75;95835.75;10466623;28;2311;-64
2023/04/06 10:00:44;;;;;;;;;;;;;;;18.73;42.14;95837.59;10458178;28;2298;-64
2023/04/06 10:05:51;;;;;;;;;;;;;;;18.71;41.21;95837.06;10474621;28;3237;-64
2023/04/06 10:10:53;;;;;;;;;;;;;;;18.67;41.41;95825.47;10479289;28;3292;-64
2023/04/06 10:15:54;;;;;;;;;;;;;;;18.65;41.07;95811.81;10457331;28;2856;-64
2023/04/06 10:21:00;;;;;;;;;;;;;;;18.63;41.23;95811.28;10477460;28;2852;-63
2023/04/06 10:26:01;;;;;;;;;;;;;;;18.62;41.52;95814.97;10444409;28;3248;-63
2023/04/06 10:31:02;;;;;;;;;;;;;;;18.59;41.12;95818.13;10460768;28;3295;-63
2023/04/06 10:36:10;;;;;;;;;;;;;;;18.59;40.82;95816.28;10447223;28;3347;-69
2023/04/06 10:41:10;;;;;;;;;;;;;;;18.57;41.27;95814.97;10461403;28;3278;-65
2023/04/06 10:46:11;;;;;;;;;;;;;;;18.55;41.97;95798.69;10478321;28;2375;-64
2023/04/06 10:51:14;;;;;;;;;;;;;;;18.57;41.27;95799.22;10470390;28;3297;-64
2023/04/06 10:56:15;;;;;;;;;;;;;;;18.56;41.50;95798.44;10473302;28;2414;-64
2023/04/06 11:01:16;;;;;;;;;;;;;;;18.55;41.21;95796.06;10454225;28;3325;-64
2023/04/06 11:06:20;;;;;;;;;;;;;;;18.54;42.18;95794.50;10475950;28;2868;-65
2023/04/06 11:11:21;;;;;;;;;;;;;;;18.52;41.66;95786.09;10473562;28;2358;-64
2023/04/06 11:16:25;;;;;;;;;;;;;;;18.52;42.28;95786.09;10465773;28;3262;-64
2023/04/06 11:21:47;;;;;;;;;;;;;;;18.50;42.59;95769.81;10451583;28;2766;-64
2023/04/06 11:26:50;;;;;;;;;;;;;;;18.49;42.13;95765.59;10470907;28;3254;-64
2023/04/06 11:31:52;;;;;;;;;;;;;;;18.48;41.79;95759.56;10455304;28;3368;-63
2023/04/06 11:36:54;;;;;;;;;;;;;;;18.46;41.71;95760.88;10471766;28;3347;-64
2023/04/06 11:41:59;;;;;;;;;;;;;;;18.42;42.27;95755.31;10467830;28;3044;-64
2023/04/06 11:47:00;;;;;;;;;;;;;;;18.44;42.11;95747.22;10471832;28;3315;-64
2023/04/06 11:52:01;;;;;;;;;;;;;;;18.41;42.36;95752.94;10466761;28;3556;-64
2023/04/06 11:57:02;;;;;;;;;;;;;;;18.40;42.28;95751.38;10476350;28;2909;-63
2023/04/06 12:02:02;;;;;;;;;;;;;;;18.41;42.43;95756.38;10473717;28;3299;-63
2023/04/06 12:07:03;;;;;;;;;;;;;;;18.41;42.28;95747.69;10453442;28;3303;-63
2023/04/06 12:12:04;;;;;;;;;;;;;;;18.39;42.44;95739.28;10472164;28;2860;-62
2023/04/06 12:17:04;;;;;;;;;;;;;;;18.38;42.48;95735.88;10474066;28;2314;-63
2023/04/06 12:22:05;;;;;;;;;;;;;;;18.37;42.12;95730.91;10471611;28;3317;-63
2023/04/06 12:27:05;;;;;;;;;;;;;;;18.37;42.46;95717.78;10470035;28;2282;-62
2023/04/06 12:32:06;;;;;;;;;;;;;;;18.35;42.75;95722.50;10472385;28;2980;-62
2023/04/06 12:37:06;;;;;;;;;;;;;;;18.35;42.69;95727.75;10474629;28;3261;-62
2023/04/06 12:42:10;;;;;;;;;;;;;;;18.37;42.32;95720.41;10470120;28;2805;-62
2023/04/06 12:47:10;;;;;;;;;;;;;;;18.36;42.85;95718.84;10468573;28;2782;-62
2023/04/06 12:52:11;;;;;;;;;;;;;;;18.33;42.53;95719.34;10472750;28;3383;-62
2023/04/06 12:57:11;;;;;;;;;;;;;;;18.33;42.40;95708.84;10472794;28;3328;-62
2023/04/06 13:02:12;;;;;;;;;;;;;;;18.33;42.85;95714.88;10481748;28;2355;-62
2023/04/06 13:07:12;;;;;;;;;;;;;;;18.32;42.74;95708.06;10483028;28;2875;-62
2023/04/06 13:12:13;;;;;;;;;;;;;;;18.32;42.41;95705.44;10475714;28;2813;-62
2023/04/06 13:17:14;;;;;;;;;;;;;;;18.32;42.82;95700.19;10479213;28;2322;-64
2023/04/06 13:22:15;;;;;;;;;;;;;;;18.32;42.77;95696.78;10479116;28;3464;-63
2023/04/06 13:27:16;;;;;;;;;;;;;;;18.34;42.81;95694.69;10473175;28;2825;-63
2023/04/06 13:32:16;;;;;;;;;;;;;;;18.32;43.44;95686.28;10474199;28;2919;-62
2023/04/06 13:37:16;;;;;;;;;;;;;;;18.35;43.58;95693.63;10481266;28;3276;-63
2023/04/06 13:42:27;;;;;;;;;;;;;;;18.39;43.79;95690.22;10483141;28;3170;-62
2023/04/06 13:47:29;;;;;;;;;;;;;;;18.45;43.81;95683.16;10469037;28;3433;-62
2023/04/06 13:52:30;;;;;;;;;;;;;;;18.53;43.34;95680.03;10484738;28;3304;-62
2023/04/06 13:57:31;;;;;;;;;;;;;;;18.62;43.17;95681.88;10483121;28;2238;-62
2023/04/06 14:02:31;;;;;;;;;;;;;;;18.71;43.36;95679.53;10484729;28;3316;-61
2023/04/06 14:07:32;;;;;;;;;;;;;;;18.79;43.65;95681.63;10469257;28;2931;-63
2023/04/06 14:12:33;;;;;;;;;;;;;;;18.89;43.76;95675.56;10480397;28;2886;-63
2023/04/06 14:17:33;;;;;;;;;;;;;;;18.96;43.84;95662.97;10480732;28;2348;-62
2023/04/06 14:22:43;;;;;;;;;;;;;;;19.04;43.88;95673.69;10479228;28;3340;-62
2023/04/06 14:27:44;;;;;;;;;;;;;;;19.11;44.06;95668.97;10455148;28;3401;-62
2023/04/06 14:32:44;;;;;;;;;;;;;;;19.17;43.86;95661.84;10476279;28;3291;-63
2023/04/06 14:37:45;;;;;;;;;;;;;;;19.24;43.92;95662.38;10470485;28;2860;-62
2023/04/06 14:42:46;;;;;;;;;;;;;;;19.28;43.83;95656.31;10471045;28;2864;-62
2023/04/06 14:47:47;;;;;;;;;;;;;;;19.31;43.66;95658.41;10471895;28;3353;-62
2023/04/06 14:52:47;;;;;;;;;;;;;;;19.35;43.72;95648.19;10466548;28;2789;-62
2023/04/06 14:57:47;;;;;;;;;;;;;;;19.37;43.68;95653.97;10470492;28;3313;-62
2023/04/06 15:02:49;;;;;;;;;;;;;;;19.41;43.65;95647.88;10472885;28;2308;-62
2023/04/06 15:07:49;;;;;;;;;;;;;;;19.42;43.50;95644.22;10474372;28;3237;-65
2023/04/06 15:12:50;;;;;;;;;;;;;;;19.44;43.04;95642.09;10467855;28;2256;-62
2023/04/06 15:17:51;;;;;;;;;;;;;;;19.48;43.29;95643.13;10464900;28;3217;-61
2023/04/06 15:22:52;;;;;;;;;;;;;;;19.53;43.33;95649.44;10471039;28;3256;-60
2023/04/06 15:27:53;;;;;;;;;;;;;;;19.54;43.10;95649.16;10471593;28;3366;-61
2023/04/06 15:33:05;;;;;;;;;;;;;;;19.57;42.96;95647.84;10463251;28;2240;-61
2023/04/06 15:38:06;;;;;;;;;;;;;;;19.58;43.17;95644.16;10470870;28;2887;-60
2023/04/06 15:43:07;;;;;;;;;;;;;;;19.62;43.45;95634.69;10477456;28;2311;-61
2023/04/06 15:48:16;;;;;;;;;;;;;;;19.65;43.45;95639.38;10478536;28;3405;-61
2023/04/06 15:53:16;;;;;;;;;;;;;;;19.64;43.14;95635.97;10459477;28;2973;-61
2023/04/06 15:58:17;;;;;;;;;;;;;;;19.69;43.11;95637.78;10468526;28;2314;-60
2023/04/06 16:03:18;;;;;;;;;;;;;;;19.70;42.73;95648.03;10457335;28;3323;-62
2023/04/06 16:08:18;;;;;;;;;;;;;;;19.70;42.82;95645.41;10471579;28;3348;-61
2023/04/06 16:13:20;;;;;;;;;;;;;;;19.71;43.00;95639.09;10456889;28;3307;-62
2023/04/06 16:18:21;;;;;;;;;;;;;;;19.73;42.59;95644.09;10468451;28;2905;-63
2023/04/06 16:23:32;;;;;;;;;;;;;;;19.76;42.71;95646.97;10471758;28;2454;-63
2023/04/06 16:28:33;;;;;;;;;;;;;;;19.78;42.77;95646.69;10460386;28;2963;-62
2023/04/06 16:33:33;;;;;;;;;;;;;;;19.78;42.66;95644.06;10481840;28;2797;-61
2023/04/06 16:38:36;;;;;;;;;;;;;;;19.81;42.73;95644.31;10486989;28;2985;-60
2023/04/06 16:43:37;;;;;;;;;;;;;;;19.83;42.65;95649.28;10484813;28;2846;-59
2023/04/06 16:48:38;;;;;;;;;;;;;;;19.82;42.47;95648.53;10482977;28;3324;-60
2023/04/06 16:53:38;;;;;;;;;;;;;;;19.82;42.14;95648.53;10491506;28;2322;-60
2023/04/06 16:58:38;;;;;;;;;;;;;;;19.83;42.20;95659.81;10486619;28;2841;-60
2023/04/06 17:03:38;;;;;;;;;;;;;;;19.82;42.16;95658.25;10485510;28;2318;-60
2023/04/06 17:08:40;;;;;;;;;;;;;;;19.82;42.02;95648.53;10500094;28;2834;-60
2023/04/06 17:13:41;;;;;;;;;;;;;;;19.82;41.86;95653.00;10485141;28;2461;-60
2023/04/06 17:18:41;;;;;;;;;;;;;;;19.83;41.79;95659.81;10487257;28;3292;-61
2023/04/06 17:23:42;;;;;;;;;;;;;;;19.81;42.50;95660.09;10471409;28;3306;-61
2023/04/06 17:28:42;;;;;;;;;;;;;;;19.82;41.62;95668.78;10485294;28;3292;-60
2023/04/06 17:33:42;;;;;;;;;;;;;;;19.81;41.19;95662.72;10484551;28;3234;-59
2023/04/06 17:38:44;;;;;;;;;;;;;;;19.83;41.17;95665.06;10484188;28;2342;-58
2023/04/06 17:43:46;;;;;;;;;;;;;;;19.84;41.46;95666.66;10465187;28;3458;-60
2023/04/06 17:48:47;;;;;;;;;;;;;;;19.85;41.50;95668.22;10462370;28;2685;-60
2023/04/06 17:53:48;;;;;;;;;;;;;;;19.83;41.50;95675.59;10461124;28;2840;-59
2023/04/06 17:58:49;;;;;;;;;;;;;;;19.85;41.25;95678.75;10459448;28;2817;-60
2023/04/06 18:03:49;;;;;;;;;;;;;;;19.83;41.17;95680.84;10459418;28;3311;-59
2023/04/06 18:08:50;;;;;;;;;;;;;;;19.84;40.87;95692.97;10479083;28;3323;-60
2023/04/06 18:13:51;;;;;;;;;;;;;;;19.82;40.95;95685.34;10448041;28;3324;-59
2023/04/06 18:18:53;;;;;;;;;;;;;;;19.81;40.62;95696.91;10442595;28;2316;-59
2023/04/06 18:23:54;;;;;;;;;;;;;;;19.79;40.64;95695.59;10477882;28;3257;-59
2023/04/06 18:28:55;;;;;;;;;;;;;;;19.78;40.40;95700.09;10450926;28;2841;-60
2023/04/06 18:33:56;;;;;;;;;;;;;;;19.76;40.37;95702.22;10482794;28;2809;-60
2023/04/06 18:38:57;;;;;;;;;;;;;;;19.74;40.16;95699.03;10464171;28;3237;-59
2023/04/06 18:43:57;;;;;;;;;;;;;;;19.71;40.02;95709.31;10467555;28;2797;-59
2023/04/06 18:48:57;;;;;;;;;;;;;;;19.70;40.02;95713.00;10464929;28;2951;-59
2023/04/06 18:53:59;;;;;;;;;;;;;;;19.70;39.88;95719.03;10469889;28;3210;-59
2023/04/06 18:58:59;;;;;;;;;;;;;;;19.71;39.68;95725.09;10445541;28;2265;-59
2023/04/06 19:04:00;;;;;;;;;;;;;;;19.69;39.81;95721.94;10466363;28;2860;-58
2023/04/06 19:09:01;;;;;;;;;;;;;;;19.68;39.73;95725.63;10471233;28;2328;-60
2023/04/06 19:14:01;;;;;;;;;;;;;;;19.69;39.80;95732.47;10465685;28;3284;-60
2023/04/06 19:19:01;;;;;;;;;;;;;;;19.70;39.57;95745.34;10474219;28;3250;-60
2023/04/06 19:24:02;;;;;;;;;;;;;;;19.70;39.58;95739.31;10468433;28;2817;-60
2023/04/06 19:29:03;;;;;;;;;;;;;;;19.71;39.50;95735.59;10471382;28;2189;-59
2023/04/06 19:34:03;;;;;;;;;;;;;;;19.71;39.49;95735.59;10473280;28;3349;-60
2023/04/06 19:39:04;;;;;;;;;;;;;;;19.71;39.51;95738.25;10467099;28;2897;-58
2023/04/06 19:44:05;;;;;;;;;;;;;;;19.70;39.30;95737.44;10443038;28;2860;-61
2023/04/06 19:49:16;;;;;;;;;;;;;;;19.70;39.94;95734.06;10466864;28;2792;-62
2023/04/06 19:54:16;;;;;;;;;;;;;;;19.77;40.16;95734.53;10468295;28;2845;-62
2023/04/06 19:59:19;;;;;;;;;;;;;;;19.77;39.65;95740.59;10467741;28;2340;-63
2023/04/06 20:04:20;;;;;;;;;;;;;;;19.71;39.58;95748.75;10475063;28;2272;-63
2023/04/06 20:09:21;;;;;;;;;;;;;;;19.67;39.24;95745.09;10476974;28;2849;-63
2023/04/06 20:14:22;;;;;;;;;;;;;;;19.62;39.49;95747.75;10463703;28;2841;-63
2023/04/06 20:19:22;;;;;;;;;;;;;;;19.59;39.22;95743.00;10475142;28;2979;-63
2023/04/06 20:24:23;;;;;;;;;;;;;;;19.55;39.46;95741.97;10469200;28;3261;-63
2023/04/06 20:29:23;;;;;;;;;;;;;;;19.52;39.21;95739.88;10470810;28;2852;-64
2023/04/06 20:34:27;;;;;;;;;;;;;;;19.48;39.63;95744.88;10467195;28;2858;-64
2023/04/06 20:39:37;;;;;;;;;;;;;;;19.43;39.67;95735.16;10471884;28;2944;-63
2023/04/06 20:44:38;;;;;;;;;;;;;;;19.41;39.51;95732.00;10466933;28;2805;-64
2023/04/06 20:49:38;;;;;;;;;;;;;;;19.39;39.53;95734.09;10456205;28;3271;-63
2023/04/06 20:54:38;;;;;;;;;;;;;;;19.33;39.67;95729.91;10468588;28;3260;-65
2023/04/06 20:59:39;;;;;;;;;;;;;;;19.32;39.52;95728.31;10464838;28;2951;-64
2023/04/06 21:04:39;;;;;;;;;;;;;;;19.28;39.78;95722.03;10467883;28;2357;-65
2023/04/06 21:09:40;;;;;;;;;;;;;;;19.24;39.68;95720.97;10480023;28;2822;-64
2023/04/06 21:14:40;;;;;;;;;;;;;;;19.21;39.87;95718.88;10472644;28;2411;-63
2023/04/06 21:19:41;;;;;;;;;;;;;;;19.20;40.02;95727.81;10463289;28;2833;-63
2023/04/06 21:24:41;;;;;;;;;;;;;;;19.17;39.98;95715.19;10485468;28;3356;-63
2023/04/06 21:29:42;;;;;;;;;;;;;;;19.14;40.27;95713.13;10473293;28;3281;-64
2023/04/06 21:34:45;;;;;;;;;;;;;;;19.11;40.41;95711.00;10481862;28;3416;-64
2023/04/06 21:39:46;;;;;;;;;;;;;;;19.08;40.19;95714.16;10492474;28;2809;-64
2023/04/06 21:44:47;;;;;;;;;;;;;;;19.05;40.26;95706.81;10476599;28;2337;-63
2023/04/06 21:49:48;;;;;;;;;;;;;;;19.04;40.26;95714.97;10450627;28;2852;-64
2023/04/06 21:54:48;;;;;;;;;;;;;;;19.01;40.04;95704.97;10480859;28;2895;-64
2023/04/06 21:59:48;;;;;;;;;;;;;;;18.98;40.02;95708.91;10481172;28;3220;-64
2023/04/06 22:04:49;;;;;;;;;;;;;;;18.96;39.99;95705.75;10484011;28;2309;-64
2023/04/06 22:09:50;;;;;;;;;;;;;;;18.93;40.02;95703.66;10474968;28;2860;-64
2023/04/06 22:14:51;;;;;;;;;;;;;;;18.91;39.81;95708.41;10485045;28;2337;-64
2023/04/06 22:19:52;;;;;;;;;;;;;;;18.89;39.68;95700.00;10474893;28;2309;-63
2023/04/06 22:24:53;;;;;;;;;;;;;;;18.88;39.55;95695.00;10463168;28;3386;-64
2023/04/06 22:29:53;;;;;;;;;;;;;;;18.85;39.70;95696.31;10471540;28;3304;-64
2023/04/06 22:34:54;;;;;;;;;;;;;;;18.83;39.62;95687.91;10480398;28;2311;-64
2023/04/06 22:39:56;;;;;;;;;;;;;;;18.81;39.41;95682.16;10471999;28;3304;-64
2023/04/06 22:44:56;;;;;;;;;;;;;;;18.79;39.32;95678.19;10476418;28;2969;-64
2023/04/06 22:49:56;;;;;;;;;;;;;;;18.77;39.22;95673.22;10477082;28;2872;-64
2023/04/06 22:55:05;;;;;;;;;;;;;;;18.76;39.25;95670.84;10486131;28;2346;-64
2023/04/06 23:00:07;;;;;;;;;;;;;;;18.74;39.19;95671.09;10479299;28;2388;-64
2023/04/06 23:05:09;;;;;;;;;;;;;;;18.72;39.13;95673.22;10479682;28;3329;-64
2023/04/06 23:10:09;;;;;;;;;;;;;;;18.71;39.00;95668.22;10472985;28;3379;-64
2023/04/06 23:15:10;;;;;;;;;;;;;;;18.68;38.79;95664.28;10484135;28;3372;-63
2023/04/06 23:20:11;;;;;;;;;;;;;;;18.66;38.94;95663.75;10481872;28;2876;-62
2023/04/06 23:25:21;;;;;;;;;;;;;;;18.65;38.93;95659.53;10483687;28;3283;-63
2023/04/06 23:30:22;;;;;;;;;;;;;;;18.62;38.88;95655.63;10479641;28;3424;-63
2023/04/06 23:35:23;;;;;;;;;;;;;;;18.61;38.59;95653.25;10479011;28;2400;-63
2023/04/06 23:40:24;;;;;;;;;;;;;;;18.60;38.75;95651.69;10481880;28;2422;-63
2023/04/06 23:45:25;;;;;;;;;;;;;;;18.57;38.66;95650.38;10484358;28;2414;-63
2023/04/06 23:50:36;;;;;;;;;;;;;;;18.57;38.50;95649.56;10475385;28;3288;-63
2023/04/06 23:55:38;;;;;;;;;;;;;;;18.55;38.58;95644.59;10473571;28;3296;-63
